createdAt,value
2019-02-15T00:00:39.092Z,8.70
2019-02-15T00:03:08.142Z,8.67
2019-02-15T00:05:36.030Z,8.30
2019-02-15T00:08:04.106Z,8.97
2019-02-15T00:10:32.118Z,8.07
2019-02-15T00:13:00.233Z,8.57
2019-02-15T00:15:28.678Z,9.13
2019-02-15T00:18:13.919Z,8.33
2019-02-15T00:20:51.163Z,8.37
2019-02-15T00:23:19.097Z,7.80
2019-02-15T00:25:47.326Z,7.50
2019-02-15T00:28:15.313Z,7.70
2019-02-15T00:30:43.349Z,7.10
2019-02-15T00:33:11.571Z,7.43
2019-02-15T00:35:39.933Z,7.17
2019-02-15T00:38:08.170Z,8.00
2019-02-15T00:40:36.202Z,6.93
2019-02-15T00:43:04.194Z,6.70
2019-02-15T00:45:35.996Z,7.33
2019-02-15T00:48:07.695Z,6.97
2019-02-15T00:50:48.067Z,8.53
2019-02-15T00:53:25.699Z,9.37
2019-02-15T00:56:15.763Z,9.67
2019-02-15T00:58:54.445Z,11.03
2019-02-15T01:01:38.559Z,11.87
2019-02-15T01:04:29.283Z,11.80
2019-02-15T01:07:18.794Z,9.73
2019-02-15T01:09:56.576Z,9.30
2019-02-15T01:12:43.939Z,8.80
2019-02-15T01:15:12.390Z,7.73
2019-02-15T01:17:40.800Z,8.10
2019-02-15T01:20:08.650Z,7.07
2019-02-15T01:22:36.626Z,7.03
2019-02-15T01:25:04.963Z,6.53
2019-02-15T01:27:52.247Z,6.87
2019-02-15T01:30:42.582Z,6.57
2019-02-15T01:33:21.472Z,6.37
2019-02-15T01:36:11.562Z,6.47
2019-02-15T01:39:13.922Z,6.97
2019-02-15T01:42:02.156Z,6.43
2019-02-15T01:44:37.909Z,6.23
2019-02-15T01:47:15.855Z,6.27
2019-02-15T01:49:43.790Z,6.67
2019-02-15T01:52:11.738Z,6.33
2019-02-15T01:54:40.102Z,6.63
2019-02-15T01:57:08.227Z,6.90
2019-02-15T01:59:36.180Z,7.07
2019-02-15T02:02:05.030Z,7.33
2019-02-15T02:04:33.271Z,7.03
2019-02-15T02:07:01.340Z,6.87
2019-02-15T02:09:29.222Z,6.57
2019-02-15T02:11:57.210Z,6.60
2019-02-15T02:14:25.094Z,6.60
2019-02-15T02:16:53.195Z,7.17
2019-02-15T02:19:21.169Z,6.80
2019-02-15T02:21:49.488Z,6.40
2019-02-15T02:24:17.774Z,6.60
2019-02-15T02:26:45.729Z,6.80
2019-02-15T02:29:13.670Z,5.77
2019-02-15T02:31:41.687Z,6.20
2019-02-15T02:34:09.620Z,6.23
2019-02-15T02:36:56.315Z,6.10
2019-02-15T02:39:24.845Z,7.10
2019-02-15T02:41:52.750Z,7.37
2019-02-15T02:44:20.688Z,6.57
2019-02-15T02:46:48.720Z,6.53
2019-02-15T02:49:16.761Z,7.03
2019-02-15T02:51:44.694Z,6.60
2019-02-15T02:54:12.662Z,6.50
2019-02-15T02:56:40.937Z,6.30
2019-02-15T02:59:09.034Z,6.83
2019-02-15T03:01:37.615Z,6.93
2019-02-15T03:04:05.576Z,6.70
2019-02-15T03:06:33.564Z,6.60
2019-02-15T03:09:01.739Z,6.40
2019-02-15T03:11:29.689Z,6.70
2019-02-15T03:13:58.026Z,6.17
2019-02-15T03:16:26.053Z,6.67
2019-02-15T03:18:54.035Z,7.20
2019-02-15T03:21:22.316Z,7.60
2019-02-15T03:23:50.338Z,6.63
2019-02-15T03:26:18.559Z,6.30
2019-02-15T03:28:46.500Z,5.83
2019-02-15T03:31:14.712Z,5.33
2019-02-15T03:33:42.920Z,5.23
2019-02-15T03:36:16.330Z,5.53
2019-02-15T03:38:58.671Z,5.00
2019-02-15T03:41:33.805Z,5.03
2019-02-15T03:44:01.790Z,4.73
2019-02-15T03:46:29.777Z,4.47
2019-02-15T03:48:57.704Z,5.33
2019-02-15T03:51:25.620Z,4.90
2019-02-15T03:53:53.862Z,4.77
2019-02-15T03:56:21.798Z,4.57
2019-02-15T03:58:49.799Z,4.57
2019-02-15T04:01:17.895Z,5.13
2019-02-15T04:03:45.960Z,5.10
2019-02-15T04:06:14.277Z,4.93
2019-02-15T04:08:42.272Z,5.27
2019-02-15T04:11:10.167Z,5.40
2019-02-15T04:13:38.291Z,4.80
2019-02-15T04:16:06.239Z,5.50
2019-02-15T04:18:34.220Z,5.40
2019-02-15T04:21:02.095Z,5.47
2019-02-15T04:23:30.044Z,5.70
2019-02-15T04:25:58.057Z,5.17
2019-02-15T04:28:26.520Z,6.27
2019-02-15T04:30:54.989Z,5.20
2019-02-15T04:33:22.978Z,5.03
2019-02-15T04:35:50.937Z,4.90
2019-02-15T04:38:18.970Z,5.67
2019-02-15T04:40:46.864Z,5.37
2019-02-15T04:43:14.865Z,5.50
2019-02-15T04:45:42.856Z,5.20
2019-02-15T04:48:10.798Z,4.80
2019-02-15T04:50:38.712Z,4.30
2019-02-15T04:53:06.770Z,4.67
2019-02-15T04:55:34.727Z,4.43
2019-02-15T04:58:02.686Z,4.63
2019-02-15T05:00:30.658Z,4.10
2019-02-15T05:02:58.646Z,4.30
2019-02-15T05:05:26.625Z,4.70
2019-02-15T05:07:54.627Z,4.00
2019-02-15T05:10:22.734Z,4.57
2019-02-15T05:12:50.775Z,4.23
2019-02-15T05:15:18.803Z,4.27
2019-02-15T05:17:46.796Z,4.67
2019-02-15T05:20:14.794Z,4.00
2019-02-15T05:22:42.638Z,4.43
2019-02-15T05:25:10.795Z,4.07
2019-02-15T05:27:38.966Z,4.43
2019-02-15T05:30:07.148Z,3.70
2019-02-15T05:32:35.135Z,4.10
2019-02-15T05:35:03.055Z,4.27
2019-02-15T05:37:31.047Z,4.07
2019-02-15T05:39:59.043Z,4.17
2019-02-15T05:42:27.008Z,4.30
2019-02-15T05:45:03.236Z,4.43
2019-02-15T05:47:24.765Z,4.20
2019-02-15T05:49:52.701Z,4.43
2019-02-15T05:52:20.599Z,4.20
2019-02-15T05:54:48.518Z,4.33
2019-02-15T05:57:16.481Z,4.50
2019-02-15T05:59:44.464Z,4.50
2019-02-15T06:02:12.511Z,5.17
2019-02-15T06:04:40.519Z,5.03
2019-02-15T06:07:08.477Z,4.73
2019-02-15T06:09:36.468Z,4.77
2019-02-15T06:12:04.775Z,5.40
2019-02-15T06:14:32.646Z,5.60
2019-02-15T06:17:01.812Z,5.27
2019-02-15T06:19:29.855Z,5.00
2019-02-15T06:21:57.846Z,5.53
2019-02-15T06:24:25.833Z,4.90
2019-02-15T06:26:53.691Z,4.90
2019-02-15T06:29:21.607Z,5.20
2019-02-15T06:31:49.521Z,4.83
2019-02-15T06:34:17.429Z,4.80
2019-02-15T06:36:45.617Z,5.50
2019-02-15T06:39:13.603Z,5.00
2019-02-15T06:41:41.609Z,5.63
2019-02-15T06:44:09.531Z,6.43
2019-02-15T06:46:37.554Z,6.57
2019-02-15T06:49:05.555Z,6.90
2019-02-15T06:51:33.509Z,6.70
2019-02-15T06:54:01.443Z,6.77
2019-02-15T06:56:29.382Z,6.87
2019-02-15T06:59:34.615Z,5.90
2019-02-15T07:02:24.621Z,5.67
2019-02-15T07:05:04.481Z,5.23
2019-02-15T07:07:32.467Z,5.30
2019-02-15T07:10:00.368Z,5.07
2019-02-15T07:12:28.343Z,5.60
2019-02-15T07:14:56.202Z,8.47
2019-02-15T07:17:24.226Z,9.37
2019-02-15T07:19:52.235Z,9.13
2019-02-15T07:22:20.260Z,7.90
2019-02-15T07:24:48.366Z,7.30
2019-02-15T07:27:16.365Z,6.20
2019-02-15T07:29:44.259Z,6.63
2019-02-15T07:32:12.268Z,7.07
2019-02-15T07:34:40.263Z,6.10
2019-02-15T07:37:08.259Z,7.70
2019-02-15T07:39:36.266Z,7.60
2019-02-15T07:42:04.502Z,8.00
2019-02-15T07:44:32.467Z,8.13
2019-02-15T07:47:00.479Z,8.87
2019-02-15T07:49:28.432Z,9.00
2019-02-15T07:51:56.373Z,8.70
2019-02-15T07:54:24.258Z,10.33
2019-02-15T07:56:52.262Z,10.73
2019-02-15T07:59:20.143Z,11.33
2019-02-15T08:01:48.369Z,12.83
2019-02-15T08:04:16.303Z,12.20
2019-02-15T08:06:44.126Z,12.73
2019-02-15T08:09:12.078Z,16.70
2019-02-15T08:11:40.146Z,46.20
2019-02-15T08:14:14.600Z,48.17
2019-02-15T08:16:38.826Z,35.37
2019-02-15T08:19:06.818Z,36.43
2019-02-15T08:21:34.794Z,20.03
2019-02-15T08:24:02.771Z,15.60
2019-02-15T08:26:30.722Z,21.73
2019-02-15T08:28:58.722Z,24.87
2019-02-15T08:31:26.831Z,23.93
2019-02-15T08:33:54.960Z,27.23
2019-02-15T08:36:23.114Z,25.30
2019-02-15T08:38:51.093Z,25.10
2019-02-15T08:41:19.171Z,24.10
2019-02-15T08:43:47.254Z,25.70
2019-02-15T08:46:15.116Z,29.93
2019-02-15T08:48:46.297Z,32.53
2019-02-15T08:51:13.365Z,29.73
2019-02-15T08:53:41.280Z,29.80
2019-02-15T08:56:09.257Z,17.67
2019-02-15T08:58:37.197Z,13.33
2019-02-15T09:01:05.254Z,11.97
2019-02-15T09:03:33.227Z,11.97
2019-02-15T09:06:01.172Z,10.40
2019-02-15T09:08:30.121Z,9.30
2019-02-15T09:10:58.205Z,14.20
2019-02-15T09:13:26.192Z,14.13
2019-02-15T09:15:54.219Z,13.17
2019-02-15T09:18:22.176Z,11.73
2019-02-15T09:20:50.209Z,15.97
2019-02-15T09:23:18.278Z,16.13
2019-02-15T09:25:46.408Z,18.10
2019-02-15T09:28:36.642Z,21.50
2019-02-15T09:31:04.534Z,22.77
2019-02-15T09:33:32.376Z,27.10
2019-02-15T09:36:00.327Z,27.77
2019-02-15T09:38:28.313Z,32.77
2019-02-15T09:40:56.176Z,31.63
2019-02-15T09:43:24.055Z,32.03
2019-02-15T09:45:52.044Z,35.80
2019-02-15T09:48:19.965Z,35.73
2019-02-15T09:50:47.951Z,32.50
2019-02-15T09:53:15.934Z,31.03
2019-02-15T09:55:43.964Z,30.00
2019-02-15T09:58:11.907Z,30.90
2019-02-15T10:00:39.846Z,30.53
2019-02-15T10:03:07.901Z,30.60
2019-02-15T10:05:35.755Z,29.57
2019-02-15T10:08:03.735Z,24.87
2019-02-15T10:10:31.673Z,22.53
2019-02-15T10:12:59.730Z,25.50
2019-02-15T10:15:28.083Z,28.37
2019-02-15T10:17:55.999Z,40.87
2019-02-15T10:20:23.988Z,42.83
2019-02-15T10:22:51.850Z,39.50
2019-02-15T10:25:19.799Z,44.73
2019-02-15T10:27:48.048Z,43.23
2019-02-15T10:30:16.074Z,41.67
2019-02-15T10:32:44.082Z,40.43
2019-02-15T10:35:12.067Z,36.93
2019-02-15T10:37:40.005Z,35.77
2019-02-15T10:40:08.167Z,33.60
2019-02-15T10:42:36.131Z,34.03
2019-02-15T10:45:04.826Z,33.93
2019-02-15T10:47:32.923Z,32.43
2019-02-15T10:50:00.879Z,31.70
2019-02-15T10:52:28.894Z,30.70
2019-02-15T10:54:56.825Z,30.30
2019-02-15T10:57:24.803Z,31.97
2019-02-15T10:59:52.756Z,29.13
2019-02-15T11:02:20.720Z,30.87
2019-02-15T11:04:49.091Z,28.83
2019-02-15T11:07:16.938Z,27.83
2019-02-15T11:09:45.079Z,27.10
2019-02-15T11:12:13.000Z,23.47
2019-02-15T11:15:07.789Z,23.07
2019-02-15T11:17:35.743Z,20.13
2019-02-15T11:20:04.004Z,18.03
2019-02-15T11:22:31.964Z,16.07
2019-02-15T11:24:59.906Z,13.87
2019-02-15T11:27:27.827Z,12.63
2019-02-15T11:29:55.691Z,13.00
2019-02-15T11:32:24.056Z,13.17
2019-02-15T11:34:52.452Z,12.57
2019-02-15T11:37:20.377Z,13.23
2019-02-15T11:39:48.374Z,12.33
2019-02-15T11:42:16.663Z,11.27
2019-02-15T11:44:44.625Z,11.23
2019-02-15T11:47:12.465Z,13.10
2019-02-15T11:49:40.535Z,13.80
2019-02-15T11:52:08.502Z,14.60
2019-02-15T11:54:36.510Z,13.90
2019-02-15T11:57:05.117Z,13.87
2019-02-15T11:59:33.107Z,10.53
2019-02-15T12:02:06.115Z,11.40
2019-02-15T12:04:30.909Z,11.60
2019-02-15T12:06:58.931Z,10.70
2019-02-15T12:09:26.886Z,10.40
2019-02-15T12:11:54.830Z,11.77
2019-02-15T12:14:42.347Z,10.70
2019-02-15T12:17:09.036Z,10.67
2019-02-15T12:19:37.024Z,9.50
2019-02-15T12:22:05.429Z,10.93
2019-02-15T12:24:33.636Z,10.87
2019-02-15T12:27:01.747Z,10.60
2019-02-15T12:29:29.627Z,10.33
2019-02-15T12:31:57.547Z,11.40
2019-02-15T12:34:25.531Z,10.67
2019-02-15T12:36:53.477Z,10.30
2019-02-15T12:39:21.439Z,11.07
2019-02-15T12:41:49.443Z,11.05
2019-02-15T12:44:17.364Z,11.23
2019-02-15T12:46:45.365Z,10.90
2019-02-15T12:49:13.442Z,11.73
2019-02-15T12:51:41.495Z,11.57
2019-02-15T12:54:09.466Z,11.33
2019-02-15T12:56:37.476Z,11.40
2019-02-15T12:59:05.396Z,12.73
2019-02-15T13:01:33.234Z,11.60
2019-02-15T13:04:01.184Z,10.47
2019-02-15T13:06:29.175Z,11.53
2019-02-15T13:08:57.123Z,10.70
2019-02-15T13:11:27.755Z,11.90
2019-02-15T13:13:55.642Z,11.83
2019-02-15T13:16:23.624Z,10.70
2019-02-15T13:18:51.667Z,11.03
2019-02-15T13:21:19.791Z,10.30
2019-02-15T13:23:47.919Z,10.20
2019-02-15T13:26:16.264Z,9.35
2019-02-15T13:28:44.320Z,10.98
2019-02-15T13:31:12.451Z,10.23
2019-02-15T13:33:40.405Z,9.88
2019-02-15T13:36:08.639Z,9.95
2019-02-15T13:38:36.606Z,9.40
2019-02-15T13:41:04.547Z,9.60
2019-02-15T13:43:32.488Z,9.53
2019-02-15T13:46:00.375Z,9.58
2019-02-15T13:48:28.327Z,9.50
2019-02-15T13:50:56.266Z,9.90
2019-02-15T13:53:24.195Z,8.83
2019-02-15T13:55:52.335Z,9.20
2019-02-15T13:58:20.307Z,9.88
2019-02-15T14:00:48.293Z,10.35
2019-02-15T14:03:16.251Z,10.93
2019-02-15T14:05:44.291Z,11.00
2019-02-15T14:08:12.250Z,11.30
2019-02-15T14:10:40.204Z,11.28
2019-02-15T14:13:08.068Z,10.03
2019-02-15T14:16:03.858Z,10.13
2019-02-15T14:18:31.876Z,9.55
2019-02-15T14:20:59.866Z,13.50
2019-02-15T14:23:27.904Z,12.73
2019-02-15T14:25:55.967Z,11.15
2019-02-15T14:28:23.923Z,10.88
2019-02-15T14:30:52.136Z,11.30
2019-02-15T14:33:20.033Z,9.50
2019-02-15T14:35:48.146Z,10.40
2019-02-15T14:38:16.062Z,13.25
2019-02-15T14:40:43.975Z,13.20
2019-02-15T14:43:11.931Z,12.82
2019-02-15T14:45:39.854Z,11.55
2019-02-15T14:48:07.912Z,11.30
2019-02-15T14:50:35.819Z,13.25
2019-02-15T14:53:03.875Z,11.05
2019-02-15T14:55:31.916Z,12.63
2019-02-15T14:57:59.856Z,11.60
2019-02-15T15:00:28.249Z,11.63
2019-02-15T15:02:56.279Z,11.20
2019-02-15T15:05:24.204Z,10.65
2019-02-15T15:07:52.283Z,9.30
2019-02-15T15:10:20.585Z,9.87
2019-02-15T15:12:48.538Z,33.40
2019-02-15T15:15:52.382Z,22.10
2019-02-15T15:18:19.675Z,13.83
2019-02-15T15:20:47.739Z,13.30
2019-02-15T15:23:15.755Z,12.30
2019-02-15T15:25:43.675Z,10.07
2019-02-15T15:28:11.611Z,10.90
2019-02-15T15:30:39.627Z,15.07
2019-02-15T15:33:07.919Z,13.47
2019-02-15T15:35:35.930Z,13.00
2019-02-15T15:38:03.897Z,12.97
2019-02-15T15:40:31.888Z,13.20
2019-02-15T15:42:59.910Z,15.43
2019-02-15T15:45:28.446Z,16.00
2019-02-15T15:47:56.509Z,13.60
2019-02-15T15:50:24.669Z,14.43
2019-02-15T15:52:52.689Z,13.80
2019-02-15T15:55:20.920Z,12.73
2019-02-15T15:57:48.911Z,13.90
2019-02-15T16:00:17.129Z,19.67
2019-02-15T16:02:45.062Z,17.30
2019-02-15T16:05:13.308Z,15.07
2019-02-15T16:07:43.487Z,13.77
2019-02-15T16:10:11.478Z,12.30
2019-02-15T16:12:39.446Z,13.43
2019-02-15T16:15:40.309Z,17.00
2019-02-15T16:18:07.610Z,16.30
2019-02-15T16:20:35.594Z,15.03
2019-02-15T16:23:03.518Z,15.50
2019-02-15T16:25:31.539Z,15.33
2019-02-15T16:27:59.494Z,15.60
2019-02-15T16:30:28.356Z,17.40
2019-02-15T16:32:56.522Z,19.87
2019-02-15T16:35:24.839Z,20.93
2019-02-15T16:37:52.820Z,19.23
2019-02-15T16:40:20.766Z,21.37
2019-02-15T16:42:48.723Z,27.13
2019-02-15T16:45:17.731Z,22.27
2019-02-15T16:47:45.823Z,17.77
2019-02-15T16:50:13.763Z,18.03
2019-02-15T16:52:41.736Z,28.23
2019-02-15T16:55:12.741Z,26.00
2019-02-15T16:57:39.546Z,28.67
2019-02-15T17:00:07.815Z,21.97
2019-02-15T17:02:40.111Z,19.10
2019-02-15T17:05:08.483Z,28.17
2019-02-15T17:07:36.468Z,30.37
2019-02-15T17:10:14.292Z,24.07
2019-02-15T17:14:03.979Z,28.07
2019-02-15T17:19:53.207Z,17.80
2019-02-15T17:22:20.135Z,18.47
2019-02-15T17:25:07.583Z,20.63
2019-02-15T17:27:36.287Z,19.10
2019-02-15T17:30:05.499Z,16.87
2019-02-15T17:32:34.291Z,17.13
2019-02-15T17:35:03.049Z,17.20
2019-02-15T17:37:31.943Z,18.83
2019-02-15T17:40:00.945Z,30.90
2019-02-15T17:42:29.699Z,30.40
2019-02-15T17:44:58.569Z,18.30
2019-02-15T17:47:27.395Z,17.17
2019-02-15T17:49:56.242Z,20.50
2019-02-15T17:52:25.121Z,23.33
2019-02-15T17:54:53.966Z,21.33
2019-02-15T17:58:12.266Z,19.33
2019-02-15T18:01:39.787Z,20.10
2019-02-15T18:05:09.703Z,22.00
2019-02-15T18:08:17.615Z,30.07
2019-02-15T18:11:50.774Z,28.13
2019-02-15T18:14:46.584Z,20.47
2019-02-15T18:17:20.257Z,15.30
2019-02-15T18:19:49.051Z,19.40
2019-02-15T18:22:46.291Z,26.60
2019-02-15T18:25:15.047Z,26.27
2019-02-15T18:27:44.840Z,21.73
2019-02-15T18:31:04.012Z,25.93
2019-02-15T18:33:31.590Z,48.43
2019-02-15T18:36:00.447Z,37.07
2019-02-15T18:38:29.429Z,23.87
2019-02-15T18:40:58.285Z,24.53
2019-02-15T18:43:27.039Z,22.83
2019-02-15T18:45:55.894Z,15.63
2019-02-15T18:48:24.747Z,17.77
2019-02-15T18:50:53.562Z,21.63
2019-02-15T18:53:22.418Z,23.23
2019-02-15T18:55:51.274Z,23.00
2019-02-15T18:58:20.078Z,22.43
2019-02-15T19:00:48.839Z,28.23
2019-02-15T19:03:20.714Z,27.83
2019-02-15T19:05:49.683Z,23.73
2019-02-15T19:08:18.574Z,22.97
2019-02-15T19:10:47.363Z,22.80
2019-02-15T19:13:16.242Z,20.97
2019-02-15T19:16:25.562Z,20.23
2019-02-15T19:18:52.887Z,27.17
2019-02-15T19:21:22.911Z,23.50
2019-02-15T19:23:52.063Z,18.37
2019-02-15T19:26:20.931Z,22.40
2019-02-15T19:28:49.846Z,25.77
2019-02-15T19:31:18.618Z,21.40
2019-02-15T19:33:47.531Z,24.30
2019-02-15T19:36:16.367Z,23.97
2019-02-15T19:38:45.071Z,21.03
2019-02-15T19:41:13.811Z,23.27
2019-02-15T19:43:42.643Z,14.53
2019-02-15T19:46:11.471Z,16.80
2019-02-15T19:48:40.207Z,19.63
2019-02-15T19:51:09.002Z,20.67
2019-02-15T19:53:37.825Z,16.57
2019-02-15T19:56:06.761Z,14.93
2019-02-15T19:58:35.514Z,15.47
2019-02-15T20:01:04.510Z,14.77
2019-02-15T20:03:34.863Z,18.03
2019-02-15T20:06:03.998Z,20.13
2019-02-15T20:08:32.954Z,19.00
2019-02-15T20:11:01.830Z,15.53
2019-02-15T20:13:30.907Z,14.03
2019-02-15T20:16:41.322Z,13.70
2019-02-15T20:19:08.563Z,15.93
2019-02-15T20:21:37.370Z,20.30
2019-02-15T20:24:06.211Z,18.13
2019-02-15T20:26:35.012Z,17.13
2019-02-15T20:29:03.827Z,17.87
2019-02-15T20:31:32.620Z,17.87
2019-02-15T20:34:01.443Z,14.60
2019-02-15T20:36:30.216Z,24.43
2019-02-15T20:38:59.084Z,25.40
2019-02-15T20:41:27.846Z,16.17
2019-02-15T20:43:56.610Z,18.63
2019-02-15T20:46:25.465Z,17.37
2019-02-15T20:49:04.235Z,15.37
2019-02-15T20:51:25.093Z,14.20
2019-02-15T20:53:53.806Z,15.03
2019-02-15T20:56:26.987Z,13.70
2019-02-15T20:58:59.741Z,15.17
2019-02-15T21:01:32.666Z,13.40
2019-02-15T21:04:02.213Z,13.47
2019-02-15T21:06:31.016Z,11.87
2019-02-15T21:09:03.723Z,13.80
2019-02-15T21:11:36.695Z,17.53
2019-02-15T21:14:09.903Z,17.07
2019-02-15T21:17:06.421Z,14.70
2019-02-15T21:19:39.077Z,12.67
2019-02-15T21:22:08.498Z,11.83
2019-02-15T21:24:37.304Z,12.50
2019-02-15T21:27:45.699Z,14.37
2019-02-15T21:30:13.763Z,15.17
2019-02-15T21:32:42.458Z,15.10
2019-02-15T21:35:11.329Z,12.33
2019-02-15T21:37:39.697Z,15.40
2019-02-15T21:40:09.470Z,16.77
2019-02-15T21:42:37.908Z,17.73
2019-02-15T21:45:06.888Z,15.53
2019-02-15T21:47:35.214Z,18.07
2019-02-15T21:50:03.706Z,17.87
2019-02-15T21:52:31.784Z,16.07
2019-02-15T21:55:00.031Z,17.90
2019-02-15T21:57:28.104Z,23.50
2019-02-15T21:59:56.102Z,25.43
2019-02-15T22:02:24.046Z,17.70
2019-02-15T22:04:51.987Z,18.43
2019-02-15T22:07:20.096Z,20.33
2019-02-15T22:09:48.111Z,22.80
2019-02-15T22:12:16.015Z,23.43
2019-02-15T22:15:14.517Z,30.13
2019-02-15T22:17:42.634Z,22.83
2019-02-15T22:20:11.761Z,18.67
2019-02-15T22:22:39.878Z,16.97
2019-02-15T22:25:08.205Z,17.27
2019-02-15T22:27:36.253Z,15.63
2019-02-15T22:30:04.954Z,15.40
2019-02-15T22:32:32.930Z,14.73
2019-02-15T22:35:02.209Z,13.83
2019-02-15T22:37:30.170Z,13.97
2019-02-15T22:39:59.968Z,14.90
2019-02-15T22:42:27.977Z,12.80
2019-02-15T22:44:59.924Z,13.47
2019-02-15T22:47:27.971Z,12.13
2019-02-15T22:49:55.979Z,12.17
2019-02-15T22:52:23.935Z,11.53
2019-02-15T22:54:51.927Z,11.73
2019-02-15T22:57:19.815Z,10.40
2019-02-15T22:59:48.406Z,10.20
2019-02-15T23:02:20.525Z,9.07
2019-02-15T23:04:48.659Z,10.43
2019-02-15T23:07:16.549Z,10.23
2019-02-15T23:09:44.507Z,11.90
2019-02-15T23:12:12.419Z,10.77
2019-02-15T23:14:40.468Z,9.03
2019-02-15T23:17:08.621Z,8.50
2019-02-15T23:19:36.618Z,10.10
2019-02-15T23:22:05.486Z,12.80
2019-02-15T23:24:33.553Z,16.37
2019-02-15T23:27:01.629Z,12.47
2019-02-15T23:29:29.622Z,9.30
2019-02-15T23:31:57.553Z,9.90
2019-02-15T23:34:25.563Z,9.87
2019-02-15T23:36:53.635Z,9.93
2019-02-15T23:39:21.606Z,10.53
2019-02-15T23:41:49.614Z,10.13
2019-02-15T23:44:17.504Z,14.73
2019-02-15T23:46:45.515Z,21.27
2019-02-15T23:49:13.494Z,25.60
2019-02-15T23:51:41.483Z,51.53
2019-02-15T23:54:09.566Z,23.83
2019-02-15T23:56:37.578Z,12.23
2019-02-15T23:59:05.564Z,9.20
